Time;durP1;ratioP1;P1;durP2;ratioP2;P2;SDS_P1;SDS_P2;PMS_P1;PMS_P2;Temp;Humidity;BMP_temperature;BMP_pressure;BME280_temperature;BME280_humidity;BME280_pressure;Samples;Min_cycle;Max_cycle;Signal;HPM_P1;HPM_P2
2023/10/02 00:02:40;;;;;;;6.60;5.30;;;20.80;68.00;;;;;;5009920;28;20468;-50
2023/10/02 00:05:06;;;;;;;8.00;5.13;;;20.80;68.00;;;;;;5008468;28;20448;-50
2023/10/02 00:07:35;;;;;;;8.67;6.00;;;20.80;67.90;;;;;;5004815;28;20464;-51
2023/10/02 00:10:05;;;;;;;7.03;4.67;;;20.80;68.00;;;;;;5009371;28;20476;-50
2023/10/02 00:12:34;;;;;;;8.57;5.20;;;20.80;67.90;;;;;;5008408;28;20469;-51
2023/10/02 00:15:12;;;;;;;9.00;5.40;;;20.80;67.90;;;;;;5007408;28;20859;-51
2023/10/02 00:17:43;;;;;;;6.83;4.93;;;20.80;67.90;;;;;;5004745;28;20496;-50
2023/10/02 00:20:20;;;;;;;6.27;4.60;;;20.80;67.80;;;;;;5009663;28;20761;-50
2023/10/02 00:22:50;;;;;;;8.80;5.30;;;20.80;67.90;;;;;;5006343;28;20476;-50
2023/10/02 00:25:20;;;;;;;7.03;5.77;;;20.80;67.90;;;;;;5007658;28;20440;-50
2023/10/02 00:27:51;;;;;;;6.47;4.73;;;20.80;67.90;;;;;;5006948;28;20568;-50
2023/10/02 00:30:22;;;;;;;9.80;6.40;;;20.80;67.80;;;;;;5006663;28;20497;-50
2023/10/02 00:32:51;;;;;;;8.10;4.70;;;20.80;67.80;;;;;;5002133;28;20456;-50
2023/10/02 00:35:22;;;;;;;6.07;4.00;;;20.80;67.90;;;;;;5007762;28;20433;-50
2023/10/02 00:37:51;;;;;;;7.30;4.97;;;20.80;67.80;;;;;;5005273;28;20457;-50
2023/10/02 00:40:26;;;;;;;6.83;5.03;;;20.80;67.90;;;;;;5000006;28;20429;-49
2023/10/02 00:42:58;;;;;;;7.93;5.33;;;20.80;67.80;;;;;;5008983;28;20480;-51
2023/10/02 00:45:30;;;;;;;6.70;5.00;;;20.80;67.80;;;;;;5006001;28;20979;-50
2023/10/02 00:50:49;;;;;;;6.40;4.70;;;20.80;67.80;;;;;;5007992;28;20453;-51
2023/10/02 00:53:24;;;;;;;6.73;5.33;;;20.80;67.80;;;;;;5008993;28;20550;-50
2023/10/02 00:55:53;;;;;;;7.70;5.20;;;20.80;67.80;;;;;;4996463;28;20435;-51
2023/10/02 00:58:24;;;;;;;7.33;5.27;;;20.80;67.80;;;;;;5005006;28;20881;-51
2023/10/02 01:00:53;;;;;;;7.27;4.80;;;20.80;67.80;;;;;;4999231;28;20534;-50
2023/10/02 01:03:22;;;;;;;6.67;5.43;;;20.80;67.80;;;;;;5008551;28;20476;-51
2023/10/02 01:05:51;;;;;;;6.60;5.20;;;20.80;67.80;;;;;;5003956;28;20521;-50
2023/10/02 01:11:13;;;;;;;7.30;5.10;;;20.80;67.80;;;;;;5007552;28;20439;-50
2023/10/02 01:13:45;;;;;;;9.07;5.50;;;20.80;67.70;;;;;;5006706;28;20543;-51
2023/10/02 01:16:17;;;;;;;8.50;6.10;;;20.80;67.80;;;;;;5003779;28;20507;-51
2023/10/02 01:18:48;;;;;;;8.10;5.47;;;20.80;67.80;;;;;;4990394;28;20535;-53
2023/10/02 01:21:24;;;;;;;7.53;4.97;;;20.80;67.80;;;;;;5003587;28;20487;-49
2023/10/02 01:24:10;;;;;;;5.67;3.90;;;20.80;67.90;;;;;;5008797;28;20480;-52
2023/10/02 01:26:41;;;;;;;5.50;4.90;;;20.80;67.80;;;;;;5010498;28;20487;-50
2023/10/02 01:29:11;;;;;;;7.30;5.37;;;20.80;67.80;;;;;;5000752;28;20467;-50
2023/10/02 01:31:44;;;;;;;7.87;5.17;;;20.80;67.80;;;;;;5002953;28;20457;-51
2023/10/02 01:34:33;;;;;;;6.80;4.37;;;20.80;67.80;;;;;;5001328;28;20444;-51
2023/10/02 01:37:21;;;;;;;9.40;5.60;;;20.80;67.70;;;;;;4990357;28;20468;-49
2023/10/02 01:40:24;;;;;;;6.73;4.83;;;20.80;67.70;;;;;;5004858;28;20784;-51
2023/10/02 01:42:40;;;;;;;6.90;5.03;;;20.80;67.60;;;;;;5006338;28;20469;-50
2023/10/02 01:45:09;;;;;;;9.00;5.50;;;20.80;67.70;;;;;;5005299;28;20480;-51
2023/10/02 01:47:41;;;;;;;7.10;4.90;;;20.80;67.80;;;;;;5008076;28;20491;-50
2023/10/02 01:50:10;;;;;;;7.30;5.57;;;20.80;67.80;;;;;;5006536;28;20441;-50
2023/10/02 01:52:38;;;;;;;8.30;5.53;;;20.80;67.70;;;;;;4996032;28;20560;-51
2023/10/02 01:55:29;;;;;;;8.03;5.23;;;20.80;67.80;;;;;;5006279;28;20428;-51
2023/10/02 01:58:16;;;;;;;7.73;6.00;;;20.80;67.70;;;;;;4990446;28;20583;-51
2023/10/02 02:00:46;;;;;;;5.73;4.57;;;20.80;67.60;;;;;;5009914;28;20443;-49
2023/10/02 02:03:17;;;;;;;6.60;5.07;;;20.80;67.70;;;;;;4993448;28;20474;-51
2023/10/02 02:05:46;;;;;;;6.30;4.80;;;20.80;67.60;;;;;;4995635;28;20978;-49
2023/10/02 02:08:24;;;;;;;7.43;4.70;;;20.80;67.70;;;;;;5004808;28;20476;-50
2023/10/02 02:11:14;;;;;;;10.70;5.77;;;20.80;67.70;;;;;;5006549;28;21147;-52
2023/10/02 02:13:47;;;;;;;9.50;5.70;;;20.70;67.50;;;;;;5003442;28;20473;-51
2023/10/02 02:16:26;;;;;;;6.90;5.00;;;20.70;67.60;;;;;;5006053;28;20446;-50
2023/10/02 02:18:56;;;;;;;6.90;5.03;;;20.80;67.70;;;;;;4992471;28;20850;-50
2023/10/02 02:21:26;;;;;;;7.57;5.00;;;20.80;67.70;;;;;;5003897;28;20449;-52
2023/10/02 02:24:06;;;;;;;7.17;5.43;;;20.80;67.80;;;;;;5005022;28;20559;-51
2023/10/02 02:26:39;;;;;;;6.60;4.87;;;20.80;67.80;;;;;;5004362;28;20432;-51
2023/10/02 02:29:23;;;;;;;7.13;5.17;;;20.70;67.70;;;;;;5007998;28;20433;-51
2023/10/02 02:31:54;;;;;;;6.80;5.07;;;20.80;67.70;;;;;;5001558;28;20543;-51
2023/10/02 02:34:25;;;;;;;6.77;4.87;;;20.70;67.70;;;;;;5004991;28;20456;-52
2023/10/02 02:36:54;;;;;;;6.90;5.43;;;20.80;67.70;;;;;;4996958;28;21039;-52
2023/10/02 02:39:23;;;;;;;7.90;5.50;;;20.80;67.70;;;;;;5004806;28;21048;-51
2023/10/02 02:44:43;;;;;;;5.90;5.30;;;20.80;67.70;;;;;;4990169;28;20492;-52
2023/10/02 02:47:14;;;;;;;6.10;4.63;;;20.70;67.80;;;;;;4997533;28;20511;-51
2023/10/02 02:49:50;;;;;;;9.20;5.23;;;20.70;67.70;;;;;;5006178;28;20484;-51
2023/10/02 02:52:20;;;;;;;5.40;4.63;;;20.70;67.70;;;;;;5004051;28;20571;-50
2023/10/02 02:54:48;;;;;;;8.77;5.90;;;20.70;67.60;;;;;;5008634;28;20449;-50
2023/10/02 02:57:25;;;;;;;5.97;4.37;;;20.70;67.70;;;;;;5004233;28;20510;-50
2023/10/02 03:00:24;;;;;;;8.87;6.30;;;20.70;67.70;;;;;;5010086;28;20912;-52
2023/10/02 03:02:47;;;;;;;7.00;4.77;;;20.70;67.60;;;;;;5005079;28;20850;-51
2023/10/02 03:05:20;;;;;;;6.80;4.67;;;20.70;67.70;;;;;;5004517;28;21064;-52
2023/10/02 03:07:49;;;;;;;7.00;5.13;;;20.70;67.60;;;;;;5002471;28;20467;-50
2023/10/02 03:10:18;;;;;;;7.10;5.17;;;20.70;67.70;;;;;;5007304;28;20711;-50
2023/10/02 03:12:48;;;;;;;8.80;6.00;;;20.70;67.60;;;;;;5009466;28;20487;-50
2023/10/02 03:15:18;;;;;;;8.47;6.17;;;20.70;67.50;;;;;;5003728;28;20943;-51
2023/10/02 03:17:46;;;;;;;6.70;5.20;;;20.70;67.50;;;;;;5008024;28;20453;-51
2023/10/02 03:20:24;;;;;;;8.07;4.97;;;20.70;67.50;;;;;;5011855;28;20445;-51
2023/10/02 03:22:53;;;;;;;7.93;5.80;;;20.70;67.50;;;;;;5008696;28;20472;-51
2023/10/02 03:25:26;;;;;;;6.17;4.80;;;20.70;67.60;;;;;;5005076;28;20496;-51
2023/10/02 03:27:57;;;;;;;7.00;5.30;;;20.70;67.50;;;;;;5008399;28;20456;-51
2023/10/02 03:30:38;;;;;;;10.37;5.63;;;20.70;67.50;;;;;;5013992;28;21405;-50
2023/10/02 03:33:17;;;;;;;8.83;5.10;;;20.70;67.50;;;;;;5014697;28;20559;-50
2023/10/02 03:36:07;;;;;;;8.20;5.10;;;20.70;67.50;;;;;;5009523;28;20827;-50
2023/10/02 03:38:36;;;;;;;7.37;5.70;;;20.70;67.50;;;;;;5005733;28;20475;-51
2023/10/02 03:41:06;;;;;;;7.37;5.50;;;20.70;67.40;;;;;;5010413;28;20448;-51
2023/10/02 03:43:42;;;;;;;9.17;5.97;;;20.70;67.50;;;;;;5002350;28;20794;-54
2023/10/02 03:46:14;;;;;;;8.70;5.57;;;20.70;67.40;;;;;;5008382;28;20483;-51
2023/10/02 03:48:50;;;;;;;6.87;4.50;;;20.70;67.50;;;;;;5011305;28;20887;-51
2023/10/02 03:51:36;;;;;;;7.03;4.60;;;20.70;67.40;;;;;;5005548;28;20507;-50
2023/10/02 03:56:49;;;;;;;7.70;5.70;;;20.70;67.40;;;;;;5005633;28;20465;-52
2023/10/02 03:59:21;;;;;;;8.40;5.13;;;20.60;67.30;;;;;;5008368;28;20878;-50
2023/10/02 04:01:50;;;;;;;8.30;5.83;;;20.70;67.40;;;;;;5009091;28;20453;-51
2023/10/02 04:04:23;;;;;;;7.97;5.43;;;20.70;67.40;;;;;;5008342;28;20874;-51
2023/10/02 04:06:54;;;;;;;6.67;4.90;;;20.70;67.30;;;;;;5006581;28;20460;-50
2023/10/02 04:09:24;;;;;;;8.03;5.73;;;20.70;67.30;;;;;;5007572;28;20436;-51
2023/10/02 04:11:54;;;;;;;10.03;6.17;;;20.60;67.30;;;;;;5008265;28;20847;-53
2023/10/02 04:14:32;;;;;;;6.87;5.27;;;20.60;67.30;;;;;;5006683;28;20884;-51
2023/10/02 04:17:13;;;;;;;6.87;5.40;;;20.60;67.30;;;;;;5006081;28;20499;-50
2023/10/02 04:19:48;;;;;;;6.40;4.50;;;20.60;67.30;;;;;;5013795;28;20507;-53
2023/10/02 04:22:19;;;;;;;8.43;5.37;;;20.60;67.30;;;;;;5003475;28;20457;-49
2023/10/02 04:25:03;;;;;;;6.50;4.60;;;20.60;67.30;;;;;;5008667;28;21044;-52
2023/10/02 04:28:00;;;;;;;10.30;6.50;;;20.60;67.30;;;;;;5006605;28;20453;-48
2023/10/02 04:30:25;;;;;;;6.87;5.03;;;20.60;67.30;;;;;;5003281;28;20448;-52
2023/10/02 04:32:59;;;;;;;7.97;5.87;;;20.60;67.30;;;;;;5007870;28;20924;-50
2023/10/02 04:35:44;;;;;;;8.60;5.70;;;20.60;67.30;;;;;;5004512;28;20557;-50
2023/10/02 04:38:14;;;;;;;9.80;6.30;;;20.60;67.20;;;;;;5005224;28;20860;-52
2023/10/02 04:40:49;;;;;;;9.73;6.10;;;20.60;67.30;;;;;;5008154;28;20456;-52
2023/10/02 04:43:23;;;;;;;9.43;5.47;;;20.60;67.30;;;;;;5007141;28;20920;-51
2023/10/02 04:46:01;;;;;;;9.97;5.90;;;20.60;67.20;;;;;;5005017;28;20571;-52
2023/10/02 04:48:39;;;;;;;7.27;5.20;;;20.60;67.30;;;;;;5006327;28;20464;-50
2023/10/02 04:51:08;;;;;;;6.50;4.97;;;20.60;67.30;;;;;;5003701;28;20527;-51
2023/10/02 04:53:39;;;;;;;8.43;5.80;;;20.60;67.30;;;;;;5007584;28;21017;-50
2023/10/02 04:56:19;;;;;;;6.50;5.10;;;20.60;67.30;;;;;;5007533;28;20429;-52
2023/10/02 04:58:49;;;;;;;7.00;5.10;;;20.60;67.30;;;;;;5004839;28;21097;-51
2023/10/02 05:01:28;;;;;;;7.93;5.07;;;20.60;67.30;;;;;;5018623;28;20501;-51
2023/10/02 05:04:02;;;;;;;7.60;5.37;;;20.60;67.30;;;;;;5007639;28;20461;-52
2023/10/02 05:06:52;;;;;;;7.40;4.70;;;20.60;67.30;;;;;;5006298;28;20479;-52
2023/10/02 05:09:26;;;;;;;9.27;5.27;;;20.60;67.30;;;;;;5012385;28;20873;-49
2023/10/02 05:11:56;;;;;;;11.37;5.90;;;20.60;67.30;;;;;;5006480;28;20460;-50
2023/10/02 05:14:28;;;;;;;6.67;5.17;;;20.50;67.10;;;;;;5006594;28;20476;-51
2023/10/02 05:17:38;;;;;;;6.67;5.37;;;20.60;67.30;;;;;;5004741;28;20707;-51
2023/10/02 05:20:13;;;;;;;7.80;5.43;;;20.60;67.30;;;;;;5010168;28;20479;-51
2023/10/02 05:22:42;;;;;;;7.33;5.27;;;20.60;67.30;;;;;;5002809;28;20604;-50
2023/10/02 05:25:11;;;;;;;7.40;5.13;;;20.60;67.30;;;;;;5006808;28;21025;-51
2023/10/02 05:27:38;;;;;;;9.37;6.33;;;20.60;67.30;;;;;;4992979;28;20456;-50
2023/10/02 05:30:13;;;;;;;6.43;5.63;;;20.60;67.30;;;;;;5007150;28;20895;-51
2023/10/02 05:32:43;;;;;;;10.37;5.97;;;20.60;67.30;;;;;;5006484;28;20466;-52
2023/10/02 05:35:18;;;;;;;8.53;5.47;;;20.60;67.30;;;;;;5007717;28;20566;-50
2023/10/02 05:37:48;;;;;;;7.23;5.47;;;20.60;67.30;;;;;;5003071;28;20488;-51
2023/10/02 05:43:17;;;;;;;7.23;5.80;;;20.50;67.30;;;;;;5011551;28;20469;-50
2023/10/02 05:45:50;;;;;;;7.70;5.30;;;20.50;67.30;;;;;;5004309;28;20473;-52
2023/10/02 05:48:37;;;;;;;7.20;4.57;;;20.50;67.30;;;;;;5005310;28;20888;-50
2023/10/02 05:51:09;;;;;;;7.37;5.10;;;20.50;67.20;;;;;;5001864;28;20453;-51
2023/10/02 05:53:38;;;;;;;7.80;5.87;;;20.50;67.20;;;;;;5011380;28;20507;-51
2023/10/02 05:56:12;;;;;;;9.30;5.77;;;20.50;67.30;;;;;;5004840;28;20437;-53
2023/10/02 05:58:42;;;;;;;7.77;5.50;;;20.50;67.30;;;;;;5005405;28;20471;-53
2023/10/02 06:01:23;;;;;;;9.33;5.67;;;20.50;67.30;;;;;;5013213;28;20958;-50
2023/10/02 06:04:00;;;;;;;6.80;4.60;;;20.50;67.20;;;;;;5009787;28;20555;-53
2023/10/02 06:06:35;;;;;;;7.13;4.97;;;20.50;67.30;;;;;;4995663;28;20475;-52
2023/10/02 06:09:13;;;;;;;9.30;6.37;;;20.50;67.30;;;;;;5005119;28;20420;-53
2023/10/02 06:14:25;;;;;;;7.63;4.80;;;20.50;67.30;;;;;;5004453;28;20519;-51
2023/10/02 06:16:53;;;;;;;9.60;5.60;;;20.50;67.30;;;;;;5003731;28;20468;-52
2023/10/02 06:19:23;;;;;;;7.30;5.73;;;20.50;67.30;;;;;;5007724;28;20445;-51
2023/10/02 06:22:06;;;;;;;7.10;5.73;;;20.50;67.30;;;;;;5002868;28;20988;-51
2023/10/02 06:24:34;;;;;;;7.13;5.03;;;20.50;67.40;;;;;;5006433;28;20449;-51
2023/10/02 06:27:05;;;;;;;9.00;5.63;;;20.50;67.40;;;;;;5006827;28;20547;-51
2023/10/02 06:29:37;;;;;;;6.97;4.97;;;20.50;67.40;;;;;;5006304;28;20436;-51
2023/10/02 06:32:09;;;;;;;7.60;5.47;;;20.50;67.50;;;;;;5003545;28;20468;-51
2023/10/02 06:34:43;;;;;;;9.40;5.83;;;20.50;67.50;;;;;;5008927;28;20464;-50
2023/10/02 06:37:13;;;;;;;7.50;5.07;;;20.50;67.50;;;;;;5003535;28;21026;-51
2023/10/02 06:39:42;;;;;;;6.10;4.83;;;20.40;67.40;;;;;;5011870;28;20531;-51
2023/10/02 06:42:12;;;;;;;9.33;5.37;;;20.50;67.40;;;;;;5010823;28;20495;-50
2023/10/02 06:44:52;;;;;;;10.73;5.90;;;20.50;67.50;;;;;;5003489;28;20460;-50
2023/10/02 06:47:23;;;;;;;8.53;6.23;;;20.40;67.60;;;;;;5004169;28;20488;-51
2023/10/02 06:49:53;;;;;;;6.40;4.63;;;20.50;67.60;;;;;;5010119;28;20453;-52
2023/10/02 06:52:24;;;;;;;7.97;5.87;;;20.40;67.50;;;;;;5004102;28;20827;-52
2023/10/02 06:54:56;;;;;;;7.10;5.17;;;20.40;67.50;;;;;;5006325;28;20548;-52
2023/10/02 06:57:25;;;;;;;9.60;5.37;;;20.50;67.70;;;;;;5003430;28;20508;-50
2023/10/02 06:59:55;;;;;;;8.17;5.33;;;20.40;67.60;;;;;;5004805;28;20452;-50
2023/10/02 07:02:25;;;;;;;8.27;5.40;;;20.40;67.60;;;;;;5007906;28;20745;-51
2023/10/02 07:04:57;;;;;;;6.30;4.80;;;20.40;67.70;;;;;;5006401;28;20453;-51
2023/10/02 07:07:30;;;;;;;8.00;5.00;;;20.40;67.70;;;;;;5000440;28;20500;-51
2023/10/02 07:10:07;;;;;;;7.43;4.33;;;20.40;67.80;;;;;;5007567;28;20433;-51
2023/10/02 07:12:39;;;;;;;7.30;5.40;;;20.40;67.80;;;;;;5001785;28;20546;-52
2023/10/02 07:15:20;;;;;;;7.77;5.03;;;20.40;67.80;;;;;;4996812;28;20453;-52
2023/10/02 07:17:49;;;;;;;7.73;5.73;;;20.40;68.00;;;;;;5004328;28;20472;-51
2023/10/02 07:20:20;;;;;;;9.73;4.87;;;20.40;67.80;;;;;;5003833;28;20524;-53
2023/10/02 07:22:50;;;;;;;6.97;4.80;;;20.40;67.70;;;;;;5009799;28;20525;-51
2023/10/02 07:25:20;;;;;;;9.27;5.37;;;20.40;67.70;;;;;;5003769;28;20455;-50
2023/10/02 07:27:49;;;;;;;6.90;5.20;;;20.40;67.80;;;;;;5005696;28;20495;-52
2023/10/02 07:30:26;;;;;;;8.87;6.03;;;20.40;67.80;;;;;;5006824;28;20954;-52
2023/10/02 07:33:02;;;;;;;6.40;3.80;;;20.40;68.10;;;;;;5008551;28;20476;-51
2023/10/02 07:35:34;;;;;;;4.63;4.10;;;20.40;67.80;;;;;;5003045;28;20530;-52
2023/10/02 07:38:08;;;;;;;6.00;4.20;;;20.40;67.80;;;;;;5007338;28;20481;-51
2023/10/02 07:43:19;;;;;;;5.63;4.30;;;20.40;67.70;;;;;;5000182;28;20928;-54
2023/10/02 07:46:01;;;;;;;6.17;4.80;;;20.40;67.60;;;;;;5005794;28;20431;-52
2023/10/02 07:48:33;;;;;;;5.50;4.03;;;20.40;67.60;;;;;;4991413;28;20995;-52
2023/10/02 07:51:06;;;;;;;7.87;4.90;;;20.40;68.80;;;;;;5004147;28;20451;-51
2023/10/02 07:53:39;;;;;;;6.17;4.20;;;20.40;67.60;;;;;;5003715;28;20512;-53
2023/10/02 07:56:11;;;;;;;6.47;4.27;;;20.40;67.50;;;;;;5004718;28;20472;-52
2023/10/02 07:58:41;;;;;;;6.83;4.60;;;20.40;67.50;;;;;;5001609;28;20476;-50
2023/10/02 08:01:12;;;;;;;6.30;5.00;;;20.40;67.50;;;;;;5002075;28;20448;-51
2023/10/02 08:03:43;;;;;;;6.00;4.20;;;20.50;67.50;;;;;;5003773;28;20480;-51
2023/10/02 08:06:23;;;;;;;4.87;4.00;;;20.50;67.50;;;;;;5004691;28;20535;-51
2023/10/02 08:09:35;;;;;;;5.33;4.40;;;20.40;67.50;;;;;;5007851;28;20468;-51
2023/10/02 08:11:49;;;;;;;6.17;4.57;;;20.50;67.40;;;;;;5008456;28;20535;-51
2023/10/02 08:17:08;;;;;;;6.70;4.47;;;20.50;67.50;;;;;;5006124;28;20463;-50
2023/10/02 08:19:37;;;;;;;6.50;4.87;;;20.50;67.60;;;;;;5005677;28;20966;-52
2023/10/02 08:22:06;;;;;;;9.00;5.53;;;20.50;67.80;;;;;;5004120;28;21009;-53
2023/10/02 08:24:37;;;;;;;6.80;4.23;;;20.50;67.80;;;;;;5010928;28;20460;-50
2023/10/02 08:27:06;;;;;;;6.23;4.90;;;20.50;67.90;;;;;;5005445;28;20461;-51
2023/10/02 08:29:34;;;;;;;7.53;4.87;;;20.50;68.00;;;;;;5006290;28;20442;-51
2023/10/02 08:32:04;;;;;;;8.40;5.30;;;20.50;67.80;;;;;;5009227;28;20479;-51
2023/10/02 08:34:33;;;;;;;5.40;3.70;;;20.50;68.00;;;;;;5009659;28;20467;-52
2023/10/02 08:37:07;;;;;;;7.70;4.87;;;20.50;67.90;;;;;;5002817;28;20471;-51
2023/10/02 08:39:39;;;;;;;6.50;4.90;;;20.40;67.90;;;;;;5005255;28;20475;-49
2023/10/02 08:42:09;;;;;;;7.30;4.70;;;20.50;68.00;;;;;;5009035;28;20475;-51
2023/10/02 08:44:40;;;;;;;7.43;4.90;;;20.50;67.90;;;;;;5013262;28;20500;-51
2023/10/02 08:47:11;;;;;;;7.10;4.17;;;20.40;67.80;;;;;;5004034;28;20499;-53
2023/10/02 08:49:41;;;;;;;6.47;4.33;;;20.50;67.90;;;;;;5009187;28;20445;-53
2023/10/02 08:52:10;;;;;;;7.73;4.87;;;20.50;67.80;;;;;;5004963;28;20830;-51
2023/10/02 08:54:41;;;;;;;5.97;4.63;;;20.50;67.80;;;;;;5007281;28;20977;-50
2023/10/02 08:57:10;;;;;;;5.27;3.87;;;20.50;67.70;;;;;;5007066;28;20974;-52
2023/10/02 08:59:41;;;;;;;6.97;4.90;;;20.50;67.60;;;;;;5004734;28;20441;-51
2023/10/02 09:02:15;;;;;;;7.00;5.27;;;20.50;67.50;;;;;;5008834;28;20463;-53
2023/10/02 09:05:09;;;;;;;5.17;4.13;;;20.50;67.60;;;;;;5007460;28;20856;-52
2023/10/02 09:08:00;;;;;;;6.27;4.10;;;20.50;67.70;;;;;;5001985;28;20480;-50
2023/10/02 09:10:35;;;;;;;7.00;5.30;;;20.50;67.70;;;;;;5006646;28;20424;-52
2023/10/02 09:13:14;;;;;;;7.07;4.77;;;20.50;67.80;;;;;;5007307;28;20475;-51
2023/10/02 09:15:45;;;;;;;6.03;3.60;;;20.50;67.80;;;;;;5010700;28;20444;-51
2023/10/02 09:18:33;;;;;;;7.30;5.83;;;20.50;67.70;;;;;;5004927;28;20558;-50
2023/10/02 09:21:13;;;;;;;6.50;4.20;;;20.50;67.60;;;;;;4995406;28;20449;-51
2023/10/02 09:23:49;;;;;;;7.57;5.00;;;20.50;67.50;;;;;;5006505;28;20468;-52
2023/10/02 09:26:23;;;;;;;5.90;3.90;;;20.50;67.60;;;;;;5006871;28;20453;-51
2023/10/02 09:29:00;;;;;;;5.43;4.40;;;20.50;67.60;;;;;;5004759;28;20472;-51
2023/10/02 09:31:33;;;;;;;5.97;4.57;;;20.50;67.60;;;;;;5011552;28;20456;-51
2023/10/02 09:34:10;;;;;;;7.17;4.77;;;20.50;67.50;;;;;;5008760;28;20554;-50
2023/10/02 09:36:54;;;;;;;6.20;4.10;;;20.50;67.50;;;;;;5001327;28;20478;-50
2023/10/02 09:39:43;;;;;;;8.20;5.03;;;20.50;67.70;;;;;;5007584;28;20432;-53
2023/10/02 09:42:13;;;;;;;6.30;4.30;;;20.50;67.60;;;;;;5006741;28;20461;-51
2023/10/02 09:44:45;;;;;;;6.67;4.70;;;20.50;67.50;;;;;;5005196;28;20461;-50
2023/10/02 09:47:15;;;;;;;7.40;4.53;;;20.50;67.60;;;;;;5007900;28;20563;-50
2023/10/02 09:49:48;;;;;;;5.67;3.93;;;20.50;67.60;;;;;;5014933;28;20451;-51
2023/10/02 09:52:33;;;;;;;7.07;4.40;;;20.50;67.50;;;;;;5001565;28;20460;-51
2023/10/02 09:55:10;;;;;;;5.93;4.63;;;20.50;67.60;;;;;;5005514;28;20449;-49
2023/10/02 09:57:50;;;;;;;6.13;4.83;;;20.50;67.60;;;;;;5008003;28;20460;-51
2023/10/02 10:00:40;;;;;;;5.13;3.73;;;20.50;67.70;;;;;;5004916;28;20967;-51
2023/10/02 10:03:30;;;;;;;6.60;4.93;;;20.50;67.60;;;;;;5004797;28;20480;-52
2023/10/02 10:06:19;;;;;;;8.10;4.90;;;20.50;67.60;;;;;;5000704;28;20516;-51
2023/10/02 10:09:25;;;;;;;6.93;4.60;;;20.50;67.60;;;;;;5006432;28;20476;-51
2023/10/02 10:14:42;;;;;;;6.47;4.40;;;20.50;67.60;;;;;;4979024;28;21068;-52
2023/10/02 10:17:56;;;;;;;6.80;4.20;;;20.50;67.70;;;;;;4993639;28;20469;-51
2023/10/02 10:20:28;;;;;;;6.57;4.80;;;20.50;67.70;;;;;;5004956;28;20933;-51
2023/10/02 10:22:57;;;;;;;6.63;4.57;;;20.50;67.80;;;;;;5006166;28;20483;-51
2023/10/02 10:25:50;;;;;;;6.77;4.77;;;20.50;67.80;;;;;;5008642;28;20470;-50
2023/10/02 10:28:28;;;;;;;5.97;4.63;;;20.50;67.70;;;;;;5003194;28;20721;-53
2023/10/02 10:31:01;;;;;;;8.03;5.53;;;20.50;67.70;;;;;;5002441;28;20453;-50
2023/10/02 10:33:40;;;;;;;7.60;4.93;;;20.50;67.70;;;;;;5008829;28;20574;-50
2023/10/02 10:36:37;;;;;;;6.07;4.23;;;20.50;67.70;;;;;;5003671;28;20697;-52
2023/10/02 10:39:44;;;;;;;7.37;5.60;;;20.50;67.80;;;;;;5003928;28;20437;-50
2023/10/02 10:42:11;;;;;;;6.60;4.50;;;20.50;67.70;;;;;;5006613;28;20595;-50
2023/10/02 10:44:43;;;;;;;6.70;4.47;;;20.50;67.80;;;;;;5010511;28;20449;-51
2023/10/02 10:47:14;;;;;;;6.93;4.80;;;20.50;67.80;;;;;;5008820;28;20534;-51
2023/10/02 10:52:35;;;;;;;7.00;4.10;;;20.50;67.80;;;;;;4987307;28;20492;-50
2023/10/02 10:55:13;;;;;;;8.70;5.80;;;20.60;68.20;;;;;;5011506;28;20465;-50
2023/10/02 10:57:51;;;;;;;6.70;4.80;;;20.60;67.80;;;;;;5003523;28;20605;-50
2023/10/02 11:03:11;;;;;;;7.07;5.40;;;20.60;67.80;;;;;;4999871;28;20488;-50
2023/10/02 11:05:39;;;;;;;8.13;5.77;;;20.60;68.00;;;;;;5004852;28;20528;-51
2023/10/02 11:08:28;;;;;;;8.27;5.03;;;20.60;68.10;;;;;;5003916;28;20543;-52
2023/10/02 11:11:11;;;;;;;7.67;5.30;;;20.60;68.00;;;;;;5002828;28;20429;-51
2023/10/02 11:13:54;;;;;;;6.90;4.90;;;20.60;68.10;;;;;;5003743;28;20841;-51
2023/10/02 11:16:31;;;;;;;7.57;4.90;;;20.60;68.10;;;;;;5006393;28;20429;-51
2023/10/02 11:19:14;;;;;;;7.63;5.30;;;20.60;68.10;;;;;;5005886;28;20452;-52
2023/10/02 11:22:16;;;;;;;8.27;5.20;;;20.50;67.90;;;;;;5001154;28;20471;-51
2023/10/02 11:25:02;;;;;;;5.90;4.67;;;20.60;68.30;;;;;;5004544;28;20456;-52
2023/10/02 11:27:30;;;;;;;6.27;4.43;;;20.60;68.00;;;;;;5003668;28;20457;-53
2023/10/02 11:30:08;;;;;;;6.27;4.40;;;20.60;67.80;;;;;;5003680;28;20472;-51
2023/10/02 11:32:53;;;;;;;6.77;5.20;;;20.60;68.00;;;;;;5004906;28;20452;-50
2023/10/02 11:35:28;;;;;;;7.67;5.57;;;20.60;68.10;;;;;;5002489;28;20441;-51
2023/10/02 11:37:58;;;;;;;7.67;5.57;;;20.60;68.00;;;;;;5004553;28;20546;-51
2023/10/02 11:40:28;;;;;;;8.53;6.10;;;20.60;68.10;;;;;;5011754;28;20449;-50
2023/10/02 11:42:59;;;;;;;8.60;5.23;;;20.70;68.20;;;;;;5010995;28;20460;-50
2023/10/02 11:45:29;;;;;;;9.33;5.17;;;20.60;68.10;;;;;;5007661;28;20459;-51
2023/10/02 11:47:58;;;;;;;6.60;4.77;;;20.60;68.10;;;;;;5007143;28;20472;-53
2023/10/02 11:50:28;;;;;;;6.93;4.73;;;20.60;68.10;;;;;;5008836;28;20424;-51
2023/10/02 11:52:56;;;;;;;6.73;4.93;;;20.60;68.10;;;;;;5012298;28;20472;-51
2023/10/02 11:55:24;;;;;;;6.73;4.90;;;20.60;68.10;;;;;;5009185;28;20544;-56
2023/10/02 11:57:52;;;;;;;7.37;4.70;;;20.60;68.20;;;;;;5007000;28;20816;-52
2023/10/02 12:00:22;;;;;;;7.50;5.37;;;20.60;68.10;;;;;;5004171;28;20449;-50
2023/10/02 12:02:51;;;;;;;7.53;5.13;;;20.60;68.10;;;;;;5010943;28;20496;-50
2023/10/02 12:05:20;;;;;;;6.30;4.60;;;20.60;68.10;;;;;;5007307;28;20435;-52
2023/10/02 12:07:49;;;;;;;6.20;4.73;;;20.60;68.20;;;;;;5007249;28;20479;-50
2023/10/02 12:10:18;;;;;;;7.33;5.07;;;20.60;68.20;;;;;;5008425;28;20500;-50
2023/10/02 12:12:46;;;;;;;8.10;5.63;;;20.60;68.20;;;;;;5007751;28;20456;-50
2023/10/02 12:15:16;;;;;;;8.67;5.30;;;20.60;68.20;;;;;;5006542;28;20469;-50
2023/10/02 12:17:46;;;;;;;7.47;4.90;;;20.70;68.30;;;;;;5008134;28;20478;-52
2023/10/02 12:20:16;;;;;;;8.50;4.80;;;20.70;68.30;;;;;;5013458;28;20440;-50
2023/10/02 12:22:49;;;;;;;7.17;5.10;;;20.60;68.20;;;;;;5006015;28;21072;-50
2023/10/02 12:25:17;;;;;;;8.10;4.70;;;20.70;68.40;;;;;;5009694;28;20989;-51
2023/10/02 12:27:46;;;;;;;8.60;5.13;;;20.70;68.40;;;;;;5010621;28;20540;-51
2023/10/02 12:30:14;;;;;;;6.47;4.70;;;20.70;68.30;;;;;;5006097;28;20468;-51
2023/10/02 12:32:43;;;;;;;6.83;4.83;;;20.70;68.40;;;;;;5009394;28;20469;-52
2023/10/02 12:35:16;;;;;;;7.57;5.07;;;20.70;68.50;;;;;;5008149;28;20425;-51
2023/10/02 12:37:45;;;;;;;5.83;4.60;;;20.70;68.50;;;;;;5007047;28;20461;-50
2023/10/02 12:40:18;;;;;;;6.20;4.67;;;20.70;68.40;;;;;;5009305;28;20460;-51
2023/10/02 12:42:47;;;;;;;7.73;4.80;;;20.70;68.50;;;;;;5011157;28;20530;-52
2023/10/02 12:45:15;;;;;;;6.80;4.97;;;20.70;68.40;;;;;;5007682;28;20457;-51
2023/10/02 12:47:43;;;;;;;6.90;4.73;;;20.70;68.50;;;;;;5004142;28;20464;-50
2023/10/02 12:50:12;;;;;;;7.40;4.80;;;20.70;68.50;;;;;;5009187;28;20511;-50
2023/10/02 12:52:41;;;;;;;7.20;5.17;;;20.70;68.50;;;;;;5006806;28;20564;-52
2023/10/02 12:55:09;;;;;;;6.10;4.40;;;20.70;68.40;;;;;;5007869;28;20469;-51
2023/10/02 12:57:39;;;;;;;9.33;5.47;;;20.70;68.40;;;;;;5006673;28;20464;-53
2023/10/02 13:00:16;;;;;;;7.10;4.83;;;20.70;68.90;;;;;;5008535;28;20453;-51
2023/10/02 13:02:45;;;;;;;9.33;4.53;;;20.70;68.50;;;;;;5005716;28;20981;-51
2023/10/02 13:05:14;;;;;;;8.20;4.93;;;20.80;68.60;;;;;;5008556;28;20504;-50
2023/10/02 13:07:44;;;;;;;6.80;5.10;;;20.80;68.60;;;;;;5002528;28;21053;-50
2023/10/02 13:10:14;;;;;;;6.93;4.40;;;20.70;68.40;;;;;;5007621;28;20508;-51
2023/10/02 13:12:44;;;;;;;9.57;4.83;;;20.70;68.50;;;;;;5006349;28;20460;-51
2023/10/02 13:15:14;;;;;;;6.13;4.70;;;20.80;68.60;;;;;;5005291;28;20441;-51
2023/10/02 13:17:42;;;;;;;6.03;4.30;;;20.80;68.50;;;;;;5001429;28;20550;-53
2023/10/02 13:20:11;;;;;;;7.80;4.57;;;20.80;68.50;;;;;;5007559;28;20934;-50
2023/10/02 13:22:40;;;;;;;6.97;4.37;;;20.80;68.60;;;;;;4980866;28;21229;-50
2023/10/02 13:25:11;;;;;;;6.07;4.33;;;20.80;68.60;;;;;;5006669;28;20472;-52
2023/10/02 13:27:40;;;;;;;5.90;4.30;;;20.80;68.60;;;;;;5005592;28;20547;-50
2023/10/02 13:30:12;;;;;;;7.23;5.17;;;20.80;68.60;;;;;;5010513;28;20999;-50
2023/10/02 13:32:40;;;;;;;7.00;5.00;;;20.80;68.50;;;;;;5004465;28;20468;-51
2023/10/02 13:35:10;;;;;;;6.30;4.47;;;20.80;68.60;;;;;;5008341;28;20432;-51
2023/10/02 13:37:39;;;;;;;8.57;5.63;;;20.80;68.60;;;;;;5003889;28;20465;-50
2023/10/02 13:40:25;;;;;;;9.03;5.40;;;20.80;68.60;;;;;;5006850;28;20861;-50
2023/10/02 13:42:54;;;;;;;7.60;4.23;;;20.80;68.50;;;;;;5003481;28;20515;-53
2023/10/02 13:45:24;;;;;;;7.80;5.20;;;20.80;68.60;;;;;;5005238;28;20479;-51
2023/10/02 13:47:53;;;;;;;6.37;4.50;;;20.80;68.50;;;;;;5006716;28;20476;-51
2023/10/02 13:50:22;;;;;;;6.57;4.57;;;20.90;68.60;;;;;;5005812;28;20461;-50
2023/10/02 13:52:53;;;;;;;6.27;4.27;;;20.90;68.60;;;;;;4993676;28;20460;-50